createdAt,value
2018-05-17T05:05:08.311Z,3.90
2018-05-17T05:10:10.338Z,4.00
2018-05-17T05:15:11.628Z,4.17
2018-05-17T05:20:12.931Z,4.40
2018-05-17T05:25:14.246Z,4.70
2018-05-17T05:30:15.547Z,5.13
2018-05-17T05:35:17.572Z,4.67
2018-05-17T05:40:18.835Z,5.60
2018-05-17T05:45:20.900Z,5.60
2018-05-17T05:50:22.224Z,6.03
2018-05-17T05:55:24.632Z,5.07
2018-05-17T06:00:26.056Z,4.90
2018-05-17T06:05:27.342Z,4.90
2018-05-17T06:10:29.654Z,4.70
2018-05-17T06:15:31.035Z,4.60
2018-05-17T06:20:32.331Z,5.13
2018-05-17T06:25:33.635Z,5.20
2018-05-17T06:30:34.921Z,5.60
2018-05-17T06:35:36.210Z,5.40
2018-05-17T06:40:37.515Z,5.60
2018-05-17T06:45:38.815Z,5.73
2018-05-17T06:50:40.130Z,6.00
2018-05-17T06:55:41.487Z,6.97
2018-05-17T07:00:42.877Z,6.30
2018-05-17T07:05:44.129Z,8.40
2018-05-17T07:10:45.427Z,8.30
2018-05-17T07:15:47.487Z,7.40
2018-05-17T07:20:48.826Z,6.03
2018-05-17T07:25:50.135Z,4.80
2018-05-17T07:30:52.184Z,4.50
2018-05-17T07:35:53.527Z,3.60
2018-05-17T07:40:54.823Z,4.17
2018-05-17T07:45:56.157Z,5.10
2018-05-17T07:50:57.439Z,4.67
2018-05-17T07:55:59.218Z,5.93
2018-05-17T08:01:00.905Z,8.53
2018-05-17T08:06:02.950Z,8.77
2018-05-17T08:11:04.228Z,8.00
2018-05-17T08:16:05.512Z,9.63
2018-05-17T08:21:06.839Z,10.13
2018-05-17T08:26:08.159Z,11.27
2018-05-17T08:31:10.183Z,10.53
2018-05-17T08:36:11.599Z,11.40
2018-05-17T08:41:14.009Z,11.53
2018-05-17T08:46:15.309Z,11.33
2018-05-17T08:51:16.603Z,11.13
2018-05-17T08:56:17.883Z,10.30
2018-05-17T09:01:19.943Z,9.07
2018-05-17T09:06:21.928Z,8.60
2018-05-17T09:11:23.269Z,7.87
2018-05-17T09:16:24.569Z,7.43
2018-05-17T09:21:26.612Z,7.30
2018-05-17T09:26:27.904Z,6.70
2018-05-17T09:31:29.960Z,6.47
2018-05-17T09:36:31.271Z,5.77
2018-05-17T09:41:32.551Z,5.90
2018-05-17T09:46:33.832Z,6.20
2018-05-17T09:51:35.708Z,6.60
2018-05-17T09:56:37.015Z,6.87
2018-05-17T10:01:38.312Z,6.10
2018-05-17T10:11:38.568Z,6.80
2018-05-17T10:16:39.865Z,6.43
2018-05-17T10:21:41.214Z,6.83
2018-05-17T10:26:42.502Z,7.47
2018-05-17T10:31:43.834Z,6.90
2018-05-17T10:36:47.094Z,6.70
2018-05-17T10:41:49.823Z,6.33
2018-05-17T10:46:51.886Z,6.80
2018-05-17T10:51:53.205Z,6.40
2018-05-17T10:56:54.758Z,6.80
2018-05-17T11:01:56.128Z,6.97
2018-05-17T11:06:58.163Z,6.40
2018-05-17T11:12:00.207Z,8.13
2018-05-17T11:17:01.599Z,6.83
2018-05-17T11:22:03.531Z,7.33
2018-05-17T11:27:05.609Z,7.33
2018-05-17T22:13:55.037Z,3.93
2018-05-17T22:18:57.095Z,3.80
2018-05-17T22:23:59.771Z,4.43
2018-05-17T22:29:01.075Z,4.30
2018-05-17T22:34:03.143Z,4.10
2018-05-17T22:39:04.504Z,4.17
2018-05-17T22:44:05.834Z,3.90
2018-05-17T22:49:07.149Z,4.00
2018-05-17T22:54:08.440Z,4.27
2018-05-17T22:59:09.732Z,3.77
2018-05-17T23:04:11.035Z,4.20
2018-05-17T23:09:13.077Z,3.63
2018-05-17T23:14:14.363Z,4.10
2018-05-17T23:19:15.636Z,3.47
2018-05-17T23:24:16.906Z,4.13
2018-05-17T23:29:19.425Z,3.83
2018-05-17T23:34:21.455Z,3.20
2018-05-17T23:39:22.756Z,3.63
2018-05-17T23:44:24.823Z,3.70
2018-05-17T23:49:26.099Z,3.90
2018-05-17T23:54:27.410Z,3.67
2018-05-17T23:59:28.695Z,3.90
